sensor_id;sensor_type;location;lat;lon;timestamp;temperature;humidity
54429;DHT22;40337;52.978;6.310;2023-04-06T00:01:25;3.50;99.90
54429;DHT22;40337;52.978;6.310;2023-04-06T00:03:50;3.50;99.90
54429;DHT22;40337;52.978;6.310;2023-04-06T00:06:16;3.40;99.90
54429;DHT22;40337;52.978;6.310;2023-04-06T00:08:42;3.50;99.90
54429;DHT22;40337;52.978;6.310;2023-04-06T00:11:08;3.40;99.90
54429;DHT22;40337;52.978;6.310;2023-04-06T00:13:34;3.40;99.90
54429;DHT22;40337;52.978;6.310;2023-04-06T00:16:00;3.40;99.90
54429;DHT22;40337;52.978;6.310;2023-04-06T00:18:25;3.30;99.90
54429;DHT22;40337;52.978;6.310;2023-04-06T00:20:51;3.30;99.90
54429;DHT22;40337;52.978;6.310;2023-04-06T00:23:17;3.20;99.90
54429;DHT22;40337;52.978;6.310;2023-04-06T00:25:43;3.20;99.90
54429;DHT22;40337;52.978;6.310;2023-04-06T00:28:08;3.10;99.90
54429;DHT22;40337;52.978;6.310;2023-04-06T00:30:34;3.10;99.90
54429;DHT22;40337;52.978;6.310;2023-04-06T00:33:00;3.10;99.90
54429;DHT22;40337;52.978;6.310;2023-04-06T00:35:26;3.00;99.90
54429;DHT22;40337;52.978;6.310;2023-04-06T00:37:51;3.00;99.90
54429;DHT22;40337;52.978;6.310;2023-04-06T00:40:17;2.90;99.90
54429;DHT22;40337;52.978;6.310;2023-04-06T00:42:43;2.90;99.90
54429;DHT22;40337;52.978;6.310;2023-04-06T00:45:09;2.90;99.90
54429;DHT22;40337;52.978;6.310;2023-04-06T00:47:35;2.80;99.90
54429;DHT22;40337;52.978;6.310;2023-04-06T00:50:00;2.80;99.90
54429;DHT22;40337;52.978;6.310;2023-04-06T00:52:26;2.80;99.90
54429;DHT22;40337;52.978;6.310;2023-04-06T00:54:52;2.70;99.90
54429;DHT22;40337;52.978;6.310;2023-04-06T00:57:18;2.70;99.90
54429;DHT22;40337;52.978;6.310;2023-04-06T00:59:44;2.60;99.90
54429;DHT22;40337;52.978;6.310;2023-04-06T01:02:10;2.70;99.90
54429;DHT22;40337;52.978;6.310;2023-04-06T01:04:36;2.70;99.90
54429;DHT22;40337;52.978;6.310;2023-04-06T01:07:01;2.70;99.90
54429;DHT22;40337;52.978;6.310;2023-04-06T01:09:28;2.60;99.90
54429;DHT22;40337;52.978;6.310;2023-04-06T01:11:54;2.60;99.90
54429;DHT22;40337;52.978;6.310;2023-04-06T01:14:21;2.60;99.90
54429;DHT22;40337;52.978;6.310;2023-04-06T01:16:47;2.50;99.90
54429;DHT22;40337;52.978;6.310;2023-04-06T01:19:13;2.50;99.90
54429;DHT22;40337;52.978;6.310;2023-04-06T01:21:40;2.50;99.90
54429;DHT22;40337;52.978;6.310;2023-04-06T01:24:06;2.40;99.90
54429;DHT22;40337;52.978;6.310;2023-04-06T01:26:33;2.40;99.90
54429;DHT22;40337;52.978;6.310;2023-04-06T01:28:59;2.40;99.90
54429;DHT22;40337;52.978;6.310;2023-04-06T01:31:26;2.30;99.90
54429;DHT22;40337;52.978;6.310;2023-04-06T01:33:52;2.30;99.90
54429;DHT22;40337;52.978;6.310;2023-04-06T01:36:18;2.30;99.90
54429;DHT22;40337;52.978;6.310;2023-04-06T01:38:44;2.20;99.90
54429;DHT22;40337;52.978;6.310;2023-04-06T01:41:10;2.20;99.90
54429;DHT22;40337;52.978;6.310;2023-04-06T01:43:36;2.20;99.90
54429;DHT22;40337;52.978;6.310;2023-04-06T01:46:01;2.20;99.90
54429;DHT22;40337;52.978;6.310;2023-04-06T01:48:27;2.20;99.90
54429;DHT22;40337;52.978;6.310;2023-04-06T01:50:53;2.20;99.90
54429;DHT22;40337;52.978;6.310;2023-04-06T01:53:19;2.20;99.90
54429;DHT22;40337;52.978;6.310;2023-04-06T01:55:44;2.20;99.90
54429;DHT22;40337;52.978;6.310;2023-04-06T01:58:11;2.20;99.90
54429;DHT22;40337;52.978;6.310;2023-04-06T02:00:36;2.20;99.90
54429;DHT22;40337;52.978;6.310;2023-04-06T02:03:02;2.20;99.90
54429;DHT22;40337;52.978;6.310;2023-04-06T02:05:29;2.20;99.90
54429;DHT22;40337;52.978;6.310;2023-04-06T02:07:55;2.20;99.90
54429;DHT22;40337;52.978;6.310;2023-04-06T02:10:21;2.10;99.90
54429;DHT22;40337;52.978;6.310;2023-04-06T02:12:47;2.10;99.90
54429;DHT22;40337;52.978;6.310;2023-04-06T02:15:13;2.10;99.90
54429;DHT22;40337;52.978;6.310;2023-04-06T02:17:39;2.10;99.90
54429;DHT22;40337;52.978;6.310;2023-04-06T02:20:05;2.00;99.90
54429;DHT22;40337;52.978;6.310;2023-04-06T02:22:31;2.10;99.90
54429;DHT22;40337;52.978;6.310;2023-04-06T02:24:56;2.10;99.90
54429;DHT22;40337;52.978;6.310;2023-04-06T02:27:22;2.00;99.90
54429;DHT22;40337;52.978;6.310;2023-04-06T02:29:47;2.00;99.90
54429;DHT22;40337;52.978;6.310;2023-04-06T02:32:13;2.00;99.90
54429;DHT22;40337;52.978;6.310;2023-04-06T02:34:39;2.00;99.90
54429;DHT22;40337;52.978;6.310;2023-04-06T02:37:04;2.00;99.90
54429;DHT22;40337;52.978;6.310;2023-04-06T02:39:30;2.00;99.90
54429;DHT22;40337;52.978;6.310;2023-04-06T02:41:55;2.00;99.90
54429;DHT22;40337;52.978;6.310;2023-04-06T02:44:22;2.00;99.90
54429;DHT22;40337;52.978;6.310;2023-04-06T02:46:47;2.00;99.90
54429;DHT22;40337;52.978;6.310;2023-04-06T02:49:13;1.90;99.90
54429;DHT22;40337;52.978;6.310;2023-04-06T02:51:38;1.90;99.90
54429;DHT22;40337;52.978;6.310;2023-04-06T02:54:04;1.90;99.90
54429;DHT22;40337;52.978;6.310;2023-04-06T02:56:30;1.90;99.90
54429;DHT22;40337;52.978;6.310;2023-04-06T02:58:55;1.80;99.90
54429;DHT22;40337;52.978;6.310;2023-04-06T03:01:21;1.80;99.90
54429;DHT22;40337;52.978;6.310;2023-04-06T03:03:46;1.80;99.90
54429;DHT22;40337;52.978;6.310;2023-04-06T03:06:12;1.80;99.90
54429;DHT22;40337;52.978;6.310;2023-04-06T03:08:37;1.80;99.90
54429;DHT22;40337;52.978;6.310;2023-04-06T03:11:03;1.80;99.90
54429;DHT22;40337;52.978;6.310;2023-04-06T03:13:29;1.80;99.90
54429;DHT22;40337;52.978;6.310;2023-04-06T03:15:54;1.80;99.90
54429;DHT22;40337;52.978;6.310;2023-04-06T03:18:24;1.70;99.90
54429;DHT22;40337;52.978;6.310;2023-04-06T03:20:50;1.70;99.90
54429;DHT22;40337;52.978;6.310;2023-04-06T03:23:16;1.70;99.90
54429;DHT22;40337;52.978;6.310;2023-04-06T03:25:42;1.70;99.90
54429;DHT22;40337;52.978;6.310;2023-04-06T03:28:07;1.80;99.90
54429;DHT22;40337;52.978;6.310;2023-04-06T03:30:34;1.80;99.90
54429;DHT22;40337;52.978;6.310;2023-04-06T03:33:00;1.70;99.90
54429;DHT22;40337;52.978;6.310;2023-04-06T03:35:25;1.70;99.90
54429;DHT22;40337;52.978;6.310;2023-04-06T03:37:51;1.60;99.90
54429;DHT22;40337;52.978;6.310;2023-04-06T03:40:16;1.60;99.90
54429;DHT22;40337;52.978;6.310;2023-04-06T03:42:42;1.60;99.90
54429;DHT22;40337;52.978;6.310;2023-04-06T03:45:08;1.50;99.90
54429;DHT22;40337;52.978;6.310;2023-04-06T03:47:34;1.50;99.90
54429;DHT22;40337;52.978;6.310;2023-04-06T03:49:59;1.50;99.90
54429;DHT22;40337;52.978;6.310;2023-04-06T03:52:25;1.50;99.90
54429;DHT22;40337;52.978;6.310;2023-04-06T03:54:51;1.50;99.90
54429;DHT22;40337;52.978;6.310;2023-04-06T03:57:17;1.50;99.90
54429;DHT22;40337;52.978;6.310;2023-04-06T03:59:42;1.60;99.90
54429;DHT22;40337;52.978;6.310;2023-04-06T04:02:08;1.50;99.90
54429;DHT22;40337;52.978;6.310;2023-04-06T04:04:33;1.50;99.90
54429;DHT22;40337;52.978;6.310;2023-04-06T04:06:59;1.50;99.90
54429;DHT22;40337;52.978;6.310;2023-04-06T04:09:24;1.50;99.90
54429;DHT22;40337;52.978;6.310;2023-04-06T04:11:50;1.50;99.90
54429;DHT22;40337;52.978;6.310;2023-04-06T04:14:15;1.50;99.90
54429;DHT22;40337;52.978;6.310;2023-04-06T04:16:41;1.50;99.90
54429;DHT22;40337;52.978;6.310;2023-04-06T04:19:07;1.50;99.90
54429;DHT22;40337;52.978;6.310;2023-04-06T04:21:33;1.50;99.90
54429;DHT22;40337;52.978;6.310;2023-04-06T04:23:58;1.40;99.90
54429;DHT22;40337;52.978;6.310;2023-04-06T04:26:24;1.40;99.90
54429;DHT22;40337;52.978;6.310;2023-04-06T04:28:50;1.40;99.90
54429;DHT22;40337;52.978;6.310;2023-04-06T04:31:15;1.40;99.90
54429;DHT22;40337;52.978;6.310;2023-04-06T04:33:43;1.40;99.90
54429;DHT22;40337;52.978;6.310;2023-04-06T04:36:09;1.30;99.90
54429;DHT22;40337;52.978;6.310;2023-04-06T04:38:35;1.40;99.90
54429;DHT22;40337;52.978;6.310;2023-04-06T04:41:01;1.40;99.90
54429;DHT22;40337;52.978;6.310;2023-04-06T04:43:26;1.30;99.90
54429;DHT22;40337;52.978;6.310;2023-04-06T04:45:52;1.30;99.90
54429;DHT22;40337;52.978;6.310;2023-04-06T04:48:18;1.30;99.90
54429;DHT22;40337;52.978;6.310;2023-04-06T04:50:44;1.30;99.90
54429;DHT22;40337;52.978;6.310;2023-04-06T04:53:09;1.30;99.90
54429;DHT22;40337;52.978;6.310;2023-04-06T04:55:35;1.30;99.90
54429;DHT22;40337;52.978;6.310;2023-04-06T04:58:00;1.30;99.90
54429;DHT22;40337;52.978;6.310;2023-04-06T05:00:27;1.30;99.90
54429;DHT22;40337;52.978;6.310;2023-04-06T05:02:53;1.30;99.90
54429;DHT22;40337;52.978;6.310;2023-04-06T05:05:19;1.30;99.90
54429;DHT22;40337;52.978;6.310;2023-04-06T05:07:44;1.30;99.90
54429;DHT22;40337;52.978;6.310;2023-04-06T05:10:10;1.30;99.90
54429;DHT22;40337;52.978;6.310;2023-04-06T05:12:36;1.30;99.90
54429;DHT22;40337;52.978;6.310;2023-04-06T05:15:02;1.30;99.90
54429;DHT22;40337;52.978;6.310;2023-04-06T05:17:28;1.30;99.90
54429;DHT22;40337;52.978;6.310;2023-04-06T05:19:53;1.30;99.90
54429;DHT22;40337;52.978;6.310;2023-04-06T05:22:19;1.30;99.90
54429;DHT22;40337;52.978;6.310;2023-04-06T05:24:45;1.30;99.90
54429;DHT22;40337;52.978;6.310;2023-04-06T05:27:11;1.30;99.90
54429;DHT22;40337;52.978;6.310;2023-04-06T05:29:36;1.30;99.90
54429;DHT22;40337;52.978;6.310;2023-04-06T05:32:02;1.40;99.90
54429;DHT22;40337;52.978;6.310;2023-04-06T05:34:27;1.50;99.90
54429;DHT22;40337;52.978;6.310;2023-04-06T05:36:53;1.50;99.90
54429;DHT22;40337;52.978;6.310;2023-04-06T05:39:18;1.50;99.90
54429;DHT22;40337;52.978;6.310;2023-04-06T05:41:44;1.50;99.90
54429;DHT22;40337;52.978;6.310;2023-04-06T05:44:10;1.50;99.90
54429;DHT22;40337;52.978;6.310;2023-04-06T05:46:36;1.50;99.90
54429;DHT22;40337;52.978;6.310;2023-04-06T05:49:01;1.50;99.90
54429;DHT22;40337;52.978;6.310;2023-04-06T05:51:27;1.50;99.90
54429;DHT22;40337;52.978;6.310;2023-04-06T05:53:52;1.60;99.90
54429;DHT22;40337;52.978;6.310;2023-04-06T05:56:18;1.70;99.90
54429;DHT22;40337;52.978;6.310;2023-04-06T05:58:43;1.70;99.90
54429;DHT22;40337;52.978;6.310;2023-04-06T06:01:09;1.80;99.90
54429;DHT22;40337;52.978;6.310;2023-04-06T06:03:35;1.80;99.90
54429;DHT22;40337;52.978;6.310;2023-04-06T06:06:01;1.90;99.90
54429;DHT22;40337;52.978;6.310;2023-04-06T06:08:27;2.00;99.90
54429;DHT22;40337;52.978;6.310;2023-04-06T06:10:55;2.10;99.90
54429;DHT22;40337;52.978;6.310;2023-04-06T06:13:20;2.20;99.90
54429;DHT22;40337;52.978;6.310;2023-04-06T06:15:47;2.30;99.90
54429;DHT22;40337;52.978;6.310;2023-04-06T06:18:13;2.40;99.90
54429;DHT22;40337;52.978;6.310;2023-04-06T06:20:39;2.60;99.90
54429;DHT22;40337;52.978;6.310;2023-04-06T06:23:04;2.80;99.90
54429;DHT22;40337;52.978;6.310;2023-04-06T06:25:30;3.00;99.90
54429;DHT22;40337;52.978;6.310;2023-04-06T06:27:58;3.10;99.90
54429;DHT22;40337;52.978;6.310;2023-04-06T06:30:24;3.20;99.90
54429;DHT22;40337;52.978;6.310;2023-04-06T06:32:50;3.30;99.90
54429;DHT22;40337;52.978;6.310;2023-04-06T06:35:16;3.40;99.90
54429;DHT22;40337;52.978;6.310;2023-04-06T06:37:42;3.50;99.90
54429;DHT22;40337;52.978;6.310;2023-04-06T06:40:09;3.60;99.90
54429;DHT22;40337;52.978;6.310;2023-04-06T06:42:34;3.80;99.90
54429;DHT22;40337;52.978;6.310;2023-04-06T06:45:00;3.90;99.90
54429;DHT22;40337;52.978;6.310;2023-04-06T06:47:25;4.00;99.90
54429;DHT22;40337;52.978;6.310;2023-04-06T06:49:51;4.20;99.90
54429;DHT22;40337;52.978;6.310;2023-04-06T06:52:17;4.30;99.90
54429;DHT22;40337;52.978;6.310;2023-04-06T06:54:42;4.50;99.90
54429;DHT22;40337;52.978;6.310;2023-04-06T06:57:08;4.70;99.90
54429;DHT22;40337;52.978;6.310;2023-04-06T06:59:34;4.80;99.90
54429;DHT22;40337;52.978;6.310;2023-04-06T07:02:00;5.00;99.90
54429;DHT22;40337;52.978;6.310;2023-04-06T07:04:25;5.20;99.90
54429;DHT22;40337;52.978;6.310;2023-04-06T07:06:51;5.20;99.90
54429;DHT22;40337;52.978;6.310;2023-04-06T07:09:18;5.30;99.90
54429;DHT22;40337;52.978;6.310;2023-04-06T07:11:43;5.40;99.90
54429;DHT22;40337;52.978;6.310;2023-04-06T07:14:09;5.50;99.90
54429;DHT22;40337;52.978;6.310;2023-04-06T07:16:37;5.60;99.90
54429;DHT22;40337;52.978;6.310;2023-04-06T07:19:02;5.70;99.90
54429;DHT22;40337;52.978;6.310;2023-04-06T07:21:28;5.90;99.90
54429;DHT22;40337;52.978;6.310;2023-04-06T07:23:53;6.10;99.90
54429;DHT22;40337;52.978;6.310;2023-04-06T07:26:19;6.30;99.90
54429;DHT22;40337;52.978;6.310;2023-04-06T07:28:45;6.60;99.90
54429;DHT22;40337;52.978;6.310;2023-04-06T07:31:11;7.10;99.90
54429;DHT22;40337;52.978;6.310;2023-04-06T07:33:36;7.70;99.90
54429;DHT22;40337;52.978;6.310;2023-04-06T07:36:02;8.40;99.90
54429;DHT22;40337;52.978;6.310;2023-04-06T07:38:27;9.10;99.90
54429;DHT22;40337;52.978;6.310;2023-04-06T07:40:53;9.70;99.20
54429;DHT22;40337;52.978;6.310;2023-04-06T07:43:19;10.20;97.90
54429;DHT22;40337;52.978;6.310;2023-04-06T07:45:44;10.50;96.90
54429;DHT22;40337;52.978;6.310;2023-04-06T07:48:10;10.70;96.20
54429;DHT22;40337;52.978;6.310;2023-04-06T07:50:36;10.80;96.10
54429;DHT22;40337;52.978;6.310;2023-04-06T07:53:01;10.90;95.60
54429;DHT22;40337;52.978;6.310;2023-04-06T07:55:27;11.00;95.10
54429;DHT22;40337;52.978;6.310;2023-04-06T07:57:53;11.20;94.40
54429;DHT22;40337;52.978;6.310;2023-04-06T08:00:19;11.50;94.50
54429;DHT22;40337;52.978;6.310;2023-04-06T08:02:45;11.80;93.80
54429;DHT22;40337;52.978;6.310;2023-04-06T08:05:10;11.60;92.90
54429;DHT22;40337;52.978;6.310;2023-04-06T08:07:36;11.40;92.20
54429;DHT22;40337;52.978;6.310;2023-04-06T08:10:02;11.10;93.00
54429;DHT22;40337;52.978;6.310;2023-04-06T08:12:27;11.00;92.80
54429;DHT22;40337;52.978;6.310;2023-04-06T08:14:53;11.00;93.40
54429;DHT22;40337;52.978;6.310;2023-04-06T08:17:19;11.30;93.20
54429;DHT22;40337;52.978;6.310;2023-04-06T08:19:45;11.60;93.20
54429;DHT22;40337;52.978;6.310;2023-04-06T08:22:11;12.00;92.60
54429;DHT22;40337;52.978;6.310;2023-04-06T08:24:37;12.30;92.30
54429;DHT22;40337;52.978;6.310;2023-04-06T08:27:02;12.60;91.60
54429;DHT22;40337;52.978;6.310;2023-04-06T08:29:28;12.50;90.70
54429;DHT22;40337;52.978;6.310;2023-04-06T08:31:54;12.30;91.80
54429;DHT22;40337;52.978;6.310;2023-04-06T08:34:21;12.20;92.40
54429;DHT22;40337;52.978;6.310;2023-04-06T08:36:46;11.80;91.20
54429;DHT22;40337;52.978;6.310;2023-04-06T08:39:12;11.60;91.50
54429;DHT22;40337;52.978;6.310;2023-04-06T08:41:38;11.50;91.90
54429;DHT22;40337;52.978;6.310;2023-04-06T08:44:06;11.30;91.90
54429;DHT22;40337;52.978;6.310;2023-04-06T08:46:32;11.20;91.60
54429;DHT22;40337;52.978;6.310;2023-04-06T08:48:59;11.20;92.00
54429;DHT22;40337;52.978;6.310;2023-04-06T08:51:26;11.20;91.90
54429;DHT22;40337;52.978;6.310;2023-04-06T08:53:57;11.20;92.30
54429;DHT22;40337;52.978;6.310;2023-04-06T08:56:23;11.20;91.80
54429;DHT22;40337;52.978;6.310;2023-04-06T08:58:50;11.30;92.60
54429;DHT22;40337;52.978;6.310;2023-04-06T09:01:18;11.40;92.00
54429;DHT22;40337;52.978;6.310;2023-04-06T09:03:45;11.60;91.50
54429;DHT22;40337;52.978;6.310;2023-04-06T09:06:11;11.80;91.10
54429;DHT22;40337;52.978;6.310;2023-04-06T09:08:39;12.00;90.50
54429;DHT22;40337;52.978;6.310;2023-04-06T09:11:05;12.00;90.90
54429;DHT22;40337;52.978;6.310;2023-04-06T09:13:31;12.00;90.00
54429;DHT22;40337;52.978;6.310;2023-04-06T09:16:04;12.10;88.70
54429;DHT22;40337;52.978;6.310;2023-04-06T09:18:32;12.10;88.20
54429;DHT22;40337;52.978;6.310;2023-04-06T09:21:03;12.10;88.00
54429;DHT22;40337;52.978;6.310;2023-04-06T09:23:29;12.20;87.50
54429;DHT22;40337;52.978;6.310;2023-04-06T09:26:10;12.50;90.00
54429;DHT22;40337;52.978;6.310;2023-04-06T09:28:50;12.80;87.30
54429;DHT22;40337;52.978;6.310;2023-04-06T09:31:21;13.00;88.70
54429;DHT22;40337;52.978;6.310;2023-04-06T09:33:46;13.30;86.60
54429;DHT22;40337;52.978;6.310;2023-04-06T09:36:12;13.50;85.70
54429;DHT22;40337;52.978;6.310;2023-04-06T09:38:58;13.70;86.20
54429;DHT22;40337;52.978;6.310;2023-04-06T09:44:11;14.10;84.90
54429;DHT22;40337;52.978;6.310;2023-04-06T09:46:39;14.00;82.00
54429;DHT22;40337;52.978;6.310;2023-04-06T09:49:06;14.20;83.20
54429;DHT22;40337;52.978;6.310;2023-04-06T09:51:40;14.60;82.50
54429;DHT22;40337;52.978;6.310;2023-04-06T09:54:06;15.10;78.20
54429;DHT22;40337;52.978;6.310;2023-04-06T09:56:56;15.80;75.10
54429;DHT22;40337;52.978;6.310;2023-04-06T10:02:32;16.80;71.60
54429;DHT22;40337;52.978;6.310;2023-04-06T10:05:07;17.10;68.80
54429;DHT22;40337;52.978;6.310;2023-04-06T10:07:35;17.30;69.00
54429;DHT22;40337;52.978;6.310;2023-04-06T10:10:02;17.10;67.80
54429;DHT22;40337;52.978;6.310;2023-04-06T10:12:28;16.80;68.70
54429;DHT22;40337;52.978;6.310;2023-04-06T10:14:54;16.50;67.80
54429;DHT22;40337;52.978;6.310;2023-04-06T10:17:20;16.20;66.80
54429;DHT22;40337;52.978;6.310;2023-04-06T10:22:43;16.10;65.30
54429;DHT22;40337;52.978;6.310;2023-04-06T10:25:09;16.00;64.70
54429;DHT22;40337;52.978;6.310;2023-04-06T10:27:35;16.20;66.70
54429;DHT22;40337;52.978;6.310;2023-04-06T10:30:06;16.20;67.10
54429;DHT22;40337;52.978;6.310;2023-04-06T10:32:38;16.30;65.30
54429;DHT22;40337;52.978;6.310;2023-04-06T10:35:11;16.60;65.70
54429;DHT22;40337;52.978;6.310;2023-04-06T10:37:52;16.40;66.20
54429;DHT22;40337;52.978;6.310;2023-04-06T10:40:25;16.00;64.50
54429;DHT22;40337;52.978;6.310;2023-04-06T10:42:52;15.70;65.30
54429;DHT22;40337;52.978;6.310;2023-04-06T10:45:25;15.50;68.00
54429;DHT22;40337;52.978;6.310;2023-04-06T10:47:55;15.40;68.90
54429;DHT22;40337;52.978;6.310;2023-04-06T10:50:21;15.20;70.10
54429;DHT22;40337;52.978;6.310;2023-04-06T10:53:02;15.20;71.00
54429;DHT22;40337;52.978;6.310;2023-04-06T10:55:28;15.10;70.30
54429;DHT22;40337;52.978;6.310;2023-04-06T10:57:54;15.20;72.30
54429;DHT22;40337;52.978;6.310;2023-04-06T11:00:20;15.10;70.30
54429;DHT22;40337;52.978;6.310;2023-04-06T11:02:46;15.20;71.00
54429;DHT22;40337;52.978;6.310;2023-04-06T11:05:12;15.10;69.80
54429;DHT22;40337;52.978;6.310;2023-04-06T11:07:39;15.10;67.90
54429;DHT22;40337;52.978;6.310;2023-04-06T11:10:05;15.00;69.80
54429;DHT22;40337;52.978;6.310;2023-04-06T11:12:31;14.90;71.40
54429;DHT22;40337;52.978;6.310;2023-04-06T11:14:58;14.70;73.00
54429;DHT22;40337;52.978;6.310;2023-04-06T11:17:35;14.60;72.70
54429;DHT22;40337;52.978;6.310;2023-04-06T11:20:02;14.40;72.40
54429;DHT22;40337;52.978;6.310;2023-04-06T11:22:28;14.40;74.00
54429;DHT22;40337;52.978;6.310;2023-04-06T11:25:05;14.30;74.60
54429;DHT22;40337;52.978;6.310;2023-04-06T11:27:32;14.30;74.60
54429;DHT22;40337;52.978;6.310;2023-04-06T11:29:59;14.40;74.30
54429;DHT22;40337;52.978;6.310;2023-04-06T11:32:25;14.50;72.80
54429;DHT22;40337;52.978;6.310;2023-04-06T11:34:50;14.50;75.40
54429;DHT22;40337;52.978;6.310;2023-04-06T11:37:16;14.50;75.10
54429;DHT22;40337;52.978;6.310;2023-04-06T11:39:50;14.50;75.10
54429;DHT22;40337;52.978;6.310;2023-04-06T11:42:29;14.50;72.70
54429;DHT22;40337;52.978;6.310;2023-04-06T11:44:56;14.50;73.30
54429;DHT22;40337;52.978;6.310;2023-04-06T11:47:35;14.60;72.40
54429;DHT22;40337;52.978;6.310;2023-04-06T11:50:12;14.80;72.00
54429;DHT22;40337;52.978;6.310;2023-04-06T11:52:40;15.00;73.50
54429;DHT22;40337;52.978;6.310;2023-04-06T11:55:16;15.10;73.30
54429;DHT22;40337;52.978;6.310;2023-04-06T11:57:43;15.10;72.80
54429;DHT22;40337;52.978;6.310;2023-04-06T12:00:10;15.00;73.30
54429;DHT22;40337;52.978;6.310;2023-04-06T12:02:37;14.90;72.80
54429;DHT22;40337;52.978;6.310;2023-04-06T12:05:03;14.60;70.70
54429;DHT22;40337;52.978;6.310;2023-04-06T12:07:29;14.60;73.40
54429;DHT22;40337;52.978;6.310;2023-04-06T12:09:56;14.30;72.20
54429;DHT22;40337;52.978;6.310;2023-04-06T12:12:21;14.20;71.70
54429;DHT22;40337;52.978;6.310;2023-04-06T12:14:47;14.20;72.90
54429;DHT22;40337;52.978;6.310;2023-04-06T12:17:12;14.20;74.70
54429;DHT22;40337;52.978;6.310;2023-04-06T12:19:38;14.00;73.30
54429;DHT22;40337;52.978;6.310;2023-04-06T12:22:03;13.80;72.70
54429;DHT22;40337;52.978;6.310;2023-04-06T12:24:29;13.80;74.20
54429;DHT22;40337;52.978;6.310;2023-04-06T12:26:54;14.00;74.50
54429;DHT22;40337;52.978;6.310;2023-04-06T12:29:20;14.10;73.80
54429;DHT22;40337;52.978;6.310;2023-04-06T12:31:46;14.00;73.50
54429;DHT22;40337;52.978;6.310;2023-04-06T12:34:12;14.30;75.90
54429;DHT22;40337;52.978;6.310;2023-04-06T12:36:38;14.30;75.00
54429;DHT22;40337;52.978;6.310;2023-04-06T12:39:04;14.30;74.10
54429;DHT22;40337;52.978;6.310;2023-04-06T12:41:30;14.30;75.40
54429;DHT22;40337;52.978;6.310;2023-04-06T12:43:55;14.40;75.20
54429;DHT22;40337;52.978;6.310;2023-04-06T12:46:21;14.30;75.00
54429;DHT22;40337;52.978;6.310;2023-04-06T12:48:47;14.00;75.00
54429;DHT22;40337;52.978;6.310;2023-04-06T12:51:13;14.00;75.90
54429;DHT22;40337;52.978;6.310;2023-04-06T12:53:39;14.00;75.60
54429;DHT22;40337;52.978;6.310;2023-04-06T12:56:15;13.70;75.10
54429;DHT22;40337;52.978;6.310;2023-04-06T12:58:41;13.40;72.80
54429;DHT22;40337;52.978;6.310;2023-04-06T13:01:07;13.10;75.60
54429;DHT22;40337;52.978;6.310;2023-04-06T13:03:33;12.80;77.20
54429;DHT22;40337;52.978;6.310;2023-04-06T13:06:00;12.80;78.70
54429;DHT22;40337;52.978;6.310;2023-04-06T13:08:26;12.60;79.00
54429;DHT22;40337;52.978;6.310;2023-04-06T13:10:53;12.60;78.40
54429;DHT22;40337;52.978;6.310;2023-04-06T13:13:29;12.40;79.60
54429;DHT22;40337;52.978;6.310;2023-04-06T13:15:59;12.50;79.20
54429;DHT22;40337;52.978;6.310;2023-04-06T13:18:26;12.40;80.00
54429;DHT22;40337;52.978;6.310;2023-04-06T13:20:52;12.30;81.50
54429;DHT22;40337;52.978;6.310;2023-04-06T13:23:17;12.20;81.40
54429;DHT22;40337;52.978;6.310;2023-04-06T13:25:43;12.20;82.30
54429;DHT22;40337;52.978;6.310;2023-04-06T13:28:09;12.30;83.50
54429;DHT22;40337;52.978;6.310;2023-04-06T13:30:35;12.40;86.30
54429;DHT22;40337;52.978;6.310;2023-04-06T13:33:01;12.30;86.80
54429;DHT22;40337;52.978;6.310;2023-04-06T13:35:27;12.30;88.60
54429;DHT22;40337;52.978;6.310;2023-04-06T13:37:52;12.40;90.90
54429;DHT22;40337;52.978;6.310;2023-04-06T13:40:18;12.40;91.10
54429;DHT22;40337;52.978;6.310;2023-04-06T13:42:44;12.60;91.60
54429;DHT22;40337;52.978;6.310;2023-04-06T13:45:11;12.70;92.30
54429;DHT22;40337;52.978;6.310;2023-04-06T13:47:37;12.70;93.40
54429;DHT22;40337;52.978;6.310;2023-04-06T13:50:03;12.60;93.10
54429;DHT22;40337;52.978;6.310;2023-04-06T13:52:29;12.40;93.10
54429;DHT22;40337;52.978;6.310;2023-04-06T13:54:55;12.30;93.40
54429;DHT22;40337;52.978;6.310;2023-04-06T13:57:21;12.20;93.70
54429;DHT22;40337;52.978;6.310;2023-04-06T13:59:46;12.20;95.20
54429;DHT22;40337;52.978;6.310;2023-04-06T14:02:12;12.20;95.20
54429;DHT22;40337;52.978;6.310;2023-04-06T14:04:38;12.10;95.60
54429;DHT22;40337;52.978;6.310;2023-04-06T14:07:04;12.10;97.10
54429;DHT22;40337;52.978;6.310;2023-04-06T14:09:32;12.20;99.30
54429;DHT22;40337;52.978;6.310;2023-04-06T14:11:58;12.20;99.30
54429;DHT22;40337;52.978;6.310;2023-04-06T14:14:23;12.20;99.30
54429;DHT22;40337;52.978;6.310;2023-04-06T14:16:49;11.90;99.80
54429;DHT22;40337;52.978;6.310;2023-04-06T14:19:15;11.70;99.90
54429;DHT22;40337;52.978;6.310;2023-04-06T14:21:43;11.70;99.90
54429;DHT22;40337;52.978;6.310;2023-04-06T14:24:10;11.60;99.90
54429;DHT22;40337;52.978;6.310;2023-04-06T14:26:36;11.50;99.90
54429;DHT22;40337;52.978;6.310;2023-04-06T14:29:03;11.40;99.90
54429;DHT22;40337;52.978;6.310;2023-04-06T14:31:29;11.20;99.90
54429;DHT22;40337;52.978;6.310;2023-04-06T14:33:54;11.10;99.90
54429;DHT22;40337;52.978;6.310;2023-04-06T14:36:20;11.10;99.90
54429;DHT22;40337;52.978;6.310;2023-04-06T14:38:46;10.90;99.90
54429;DHT22;40337;52.978;6.310;2023-04-06T14:41:17;10.80;99.90
54429;DHT22;40337;52.978;6.310;2023-04-06T14:43:43;10.60;99.90
54429;DHT22;40337;52.978;6.310;2023-04-06T14:46:09;10.60;99.90
54429;DHT22;40337;52.978;6.310;2023-04-06T14:48:35;10.60;99.90
54429;DHT22;40337;52.978;6.310;2023-04-06T14:51:01;10.60;99.90
54429;DHT22;40337;52.978;6.310;2023-04-06T14:53:27;10.60;99.90
54429;DHT22;40337;52.978;6.310;2023-04-06T14:55:53;10.60;99.90
54429;DHT22;40337;52.978;6.310;2023-04-06T14:58:20;10.60;99.90
54429;DHT22;40337;52.978;6.310;2023-04-06T15:00:45;10.60;99.90
54429;DHT22;40337;52.978;6.310;2023-04-06T15:03:11;10.60;99.90
54429;DHT22;40337;52.978;6.310;2023-04-06T15:05:37;10.60;99.90
54429;DHT22;40337;52.978;6.310;2023-04-06T15:08:03;10.60;99.90
54429;DHT22;40337;52.978;6.310;2023-04-06T15:10:31;10.50;99.90
54429;DHT22;40337;52.978;6.310;2023-04-06T15:12:57;10.50;99.90
54429;DHT22;40337;52.978;6.310;2023-04-06T15:15:23;10.50;99.90
54429;DHT22;40337;52.978;6.310;2023-04-06T15:17:48;10.40;99.90
54429;DHT22;40337;52.978;6.310;2023-04-06T15:20:14;10.30;99.90
54429;DHT22;40337;52.978;6.310;2023-04-06T15:22:40;10.30;99.90
54429;DHT22;40337;52.978;6.310;2023-04-06T15:25:06;10.10;99.90
54429;DHT22;40337;52.978;6.310;2023-04-06T15:27:31;10.00;99.90
54429;DHT22;40337;52.978;6.310;2023-04-06T15:29:57;10.00;99.90
54429;DHT22;40337;52.978;6.310;2023-04-06T15:32:24;9.90;99.90
54429;DHT22;40337;52.978;6.310;2023-04-06T15:34:50;9.80;99.90
54429;DHT22;40337;52.978;6.310;2023-04-06T15:37:16;9.70;99.90
54429;DHT22;40337;52.978;6.310;2023-04-06T15:39:41;9.60;99.90
54429;DHT22;40337;52.978;6.310;2023-04-06T15:42:08;9.60;99.90